createdAt,value
2023-05-06T00:03:17.678Z,100350.19
2023-05-06T00:08:40.869Z,100350.13
2023-05-06T00:14:03.359Z,100341.75
2023-05-06T00:19:25.391Z,100342.47
2023-05-06T00:24:48.006Z,100346.00
2023-05-06T00:30:10.856Z,100340.94
2023-05-06T00:35:33.687Z,100339.06
2023-05-06T00:40:55.411Z,100324.88
2023-05-06T00:46:18.122Z,100329.34
2023-05-06T00:51:41.337Z,100321.44
2023-05-06T00:57:03.612Z,100317.56
2023-05-06T01:02:30.747Z,100321.59
2023-05-06T01:08:22.326Z,100317.41
2023-05-06T01:14:00.058Z,100311.00
2023-05-06T01:19:38.254Z,100319.28
2023-05-06T01:25:00.652Z,100324.34
2023-05-06T01:30:27.102Z,100328.75
2023-05-06T01:36:11.574Z,100336.59
2023-05-06T01:41:35.378Z,100333.75
2023-05-06T01:46:58.554Z,100340.50
2023-05-06T01:52:22.529Z,100328.19
2023-05-06T01:57:45.003Z,100341.34
2023-05-06T02:03:07.299Z,100336.38
2023-05-06T02:08:29.366Z,100336.69
2023-05-06T02:13:51.635Z,100343.47
2023-05-06T02:19:14.356Z,100342.91
2023-05-06T02:24:38.266Z,100341.38
2023-05-06T02:30:00.212Z,100348.53
2023-05-06T02:35:28.532Z,100359.53
2023-05-06T02:40:50.705Z,100351.47
2023-05-06T02:46:12.761Z,100348.13
2023-05-06T02:51:35.086Z,100352.75
2023-05-06T02:56:57.400Z,100360.47
2023-05-06T03:02:19.625Z,100368.41
2023-05-06T03:07:42.037Z,100362.88
2023-05-06T03:13:04.529Z,100363.59
2023-05-06T03:18:26.623Z,100365.66
2023-05-06T03:23:49.655Z,100382.75
2023-05-06T03:29:13.499Z,100377.84
2023-05-06T03:34:38.243Z,100385.72
2023-05-06T03:40:04.352Z,100393.97
2023-05-06T03:45:28.203Z,100394.75
2023-05-06T03:50:53.609Z,100396.38
2023-05-06T03:56:19.180Z,100389.13
2023-05-06T04:01:44.760Z,100389.28
2023-05-06T04:07:08.673Z,100382.09
2023-05-06T04:12:31.117Z,100387.34
2023-05-06T04:17:54.001Z,100386.66
2023-05-06T04:23:17.211Z,100383.22
2023-05-06T04:28:39.275Z,100387.09
2023-05-06T04:34:03.315Z,100388.13
2023-05-06T04:39:27.388Z,100379.44
2023-05-06T04:44:51.108Z,100378.72
2023-05-06T04:50:17.904Z,100395.88
2023-05-06T04:55:40.225Z,100382.19
2023-05-06T05:01:07.955Z,100388.66
2023-05-06T05:06:29.750Z,100388.53
2023-05-06T05:11:53.381Z,100388.53
2023-05-06T05:17:15.874Z,100392.97
2023-05-06T05:22:39.609Z,100398.69
2023-05-06T05:28:02.140Z,100385.75
2023-05-06T05:33:25.685Z,100388.84
2023-05-06T05:38:48.674Z,100383.19
2023-05-06T05:44:12.981Z,100389.47
2023-05-06T05:49:38.803Z,100382.38
2023-05-06T05:55:02.604Z,100390.84
2023-05-06T06:00:26.388Z,100388.16
2023-05-06T06:05:55.870Z,100382.22
2023-05-06T06:11:20.066Z,100390.69
2023-05-06T06:16:42.577Z,100396.75
2023-05-06T06:22:04.416Z,100399.25
2023-05-06T06:27:29.094Z,100412.41
2023-05-06T06:32:53.657Z,100398.69
2023-05-06T06:38:16.980Z,100416.59
2023-05-06T06:43:39.011Z,100407.50
2023-05-06T06:49:40.155Z,100406.22
2023-05-06T06:55:03.109Z,100408.50
2023-05-06T07:00:25.543Z,100410.63
2023-05-06T07:05:47.532Z,100427.66
2023-05-06T07:11:09.736Z,100410.38
2023-05-06T07:16:31.949Z,100399.97
2023-05-06T07:21:56.475Z,100392.16
2023-05-06T07:27:18.508Z,100402.00
2023-05-06T07:32:43.560Z,100401.56
2023-05-06T07:38:06.838Z,100407.66
2023-05-06T07:43:29.082Z,100388.03
2023-05-06T07:48:51.274Z,100410.25
2023-05-06T07:54:13.511Z,100421.88
2023-05-06T07:59:37.562Z,100435.81
2023-05-06T08:04:59.529Z,100444.91
2023-05-06T08:10:22.746Z,100455.81
2023-05-06T08:15:45.470Z,100452.41
2023-05-06T08:21:07.741Z,100452.97
2023-05-06T08:26:29.520Z,100446.13
2023-05-06T08:31:51.696Z,100433.28
2023-05-06T08:37:13.918Z,100454.69
2023-05-06T08:42:38.227Z,100494.84
2023-05-06T08:48:00.869Z,100510.53
2023-05-06T08:53:24.997Z,100498.50
2023-05-06T08:58:53.629Z,100490.47
2023-05-06T09:04:20.753Z,100488.78
2023-05-06T09:09:47.128Z,100476.88
2023-05-06T09:15:11.558Z,100480.34
2023-05-06T09:20:35.474Z,100477.78
2023-05-06T09:25:57.812Z,100477.16
2023-05-06T09:31:20.110Z,100477.03
2023-05-06T09:36:44.987Z,100481.41
2023-05-06T09:42:09.759Z,100482.78
2023-05-06T09:47:38.003Z,100478.16
2023-05-06T09:53:01.318Z,100490.19
2023-05-06T09:58:24.640Z,100491.72
2023-05-06T10:03:47.936Z,100509.31
2023-05-06T10:09:11.736Z,100506.88
2023-05-06T10:14:36.415Z,100491.50
2023-05-06T10:20:06.794Z,100498.56
2023-05-06T10:25:44.380Z,100503.78
2023-05-06T10:31:12.602Z,100489.16
2023-05-06T10:36:36.932Z,100488.06
2023-05-06T10:41:59.172Z,100491.47
2023-05-06T10:47:21.284Z,100515.53
2023-05-06T10:52:47.672Z,100529.09
2023-05-06T10:58:16.779Z,100547.94
2023-05-06T11:03:44.054Z,100549.31
2023-05-06T11:09:20.947Z,100548.31
2023-05-06T11:14:43.321Z,100538.44
2023-05-06T11:20:38.119Z,100540.50
2023-05-06T11:26:00.970Z,100518.16
2023-05-06T11:31:23.336Z,100535.44
2023-05-06T11:37:04.790Z,100548.06
2023-05-06T11:42:28.994Z,100553.22
2023-05-06T11:47:55.760Z,100558.22
2023-05-06T11:53:20.393Z,100556.56
2023-05-06T11:58:44.865Z,100553.84
2023-05-06T12:04:07.437Z,100541.88
2023-05-06T12:09:30.504Z,100548.53
2023-05-06T12:14:54.618Z,100544.53
2023-05-06T12:20:16.966Z,100555.81
2023-05-06T12:25:40.790Z,100564.31
2023-05-06T12:31:18.614Z,100562.50
2023-05-06T12:36:42.661Z,100587.56
2023-05-06T12:42:04.599Z,100584.78
2023-05-06T12:47:27.045Z,100600.69
2023-05-06T12:52:49.450Z,100594.56
2023-05-06T12:58:21.954Z,100588.59
2023-05-06T13:03:43.846Z,100595.53
2023-05-06T13:09:07.787Z,100586.19
2023-05-06T13:14:30.224Z,100591.47
2023-05-06T13:20:02.734Z,100580.53
2023-05-06T13:25:27.311Z,100579.38
2023-05-06T13:30:50.080Z,100582.72
2023-05-06T13:36:13.414Z,100589.09
2023-05-06T13:41:35.548Z,100582.16
2023-05-06T13:46:58.298Z,100574.75
2023-05-06T13:52:20.390Z,100579.78
2023-05-06T13:57:41.905Z,100586.88
2023-05-06T14:03:04.395Z,100580.94
2023-05-06T14:08:26.418Z,100588.44
2023-05-06T14:13:49.114Z,100595.63
2023-05-06T14:19:11.082Z,100607.94
2023-05-06T14:24:33.175Z,100614.53
2023-05-06T14:29:55.205Z,100608.06
2023-05-06T14:35:17.070Z,100608.81
2023-05-06T14:40:39.324Z,100599.72
2023-05-06T14:46:01.692Z,100608.97
2023-05-06T14:51:23.844Z,100603.00
2023-05-06T14:56:50.100Z,100606.69
2023-05-06T15:02:14.633Z,100620.56
2023-05-06T15:07:36.744Z,100617.81
2023-05-06T15:12:58.952Z,100633.56
2023-05-06T15:18:20.895Z,100648.06
2023-05-06T15:23:42.979Z,100655.25
2023-05-06T15:29:06.857Z,100631.94
2023-05-06T15:34:28.945Z,100650.28
2023-05-06T15:39:50.702Z,100629.25
2023-05-06T15:45:13.352Z,100640.88
2023-05-06T15:50:37.676Z,100644.59
2023-05-06T15:56:13.247Z,100643.75
2023-05-06T16:02:18.759Z,100641.31
2023-05-06T16:07:18.265Z,100649.97
2023-05-06T16:12:39.956Z,100640.88
2023-05-06T16:18:02.274Z,100650.72
2023-05-06T16:23:24.473Z,100646.00
2023-05-06T16:28:46.511Z,100640.91
2023-05-06T16:34:08.830Z,100643.34
2023-05-06T16:39:30.716Z,100649.56
2023-05-06T16:44:53.054Z,100651.63
2023-05-06T16:50:15.341Z,100661.72
2023-05-06T16:55:38.024Z,100672.72
2023-05-06T17:01:00.243Z,100663.59
2023-05-06T17:06:24.333Z,100673.03
2023-05-06T17:11:46.457Z,100674.84
2023-05-06T17:17:08.379Z,100681.94
2023-05-06T17:22:30.360Z,100695.59
2023-05-06T17:27:52.237Z,100698.69
2023-05-06T17:33:14.369Z,100699.78
2023-05-06T17:38:36.060Z,100703.88
2023-05-06T17:43:58.231Z,100704.81
2023-05-06T17:49:20.508Z,100703.66
2023-05-06T17:54:42.614Z,100706.75
2023-05-06T18:00:05.025Z,100708.25
2023-05-06T18:05:33.610Z,100707.25
2023-05-06T18:10:55.652Z,100708.91
2023-05-06T18:16:17.448Z,100714.25
2023-05-06T18:21:42.011Z,100725.69
2023-05-06T18:27:04.248Z,100725.50
2023-05-06T18:32:26.719Z,100729.78
2023-05-06T18:37:48.412Z,100734.88
2023-05-06T18:43:10.510Z,100733.66
2023-05-06T18:48:33.254Z,100745.22
2023-05-06T18:53:55.532Z,100742.72
2023-05-06T18:59:19.231Z,100747.56
2023-05-06T19:04:41.312Z,100748.47
2023-05-06T19:10:03.968Z,100745.66
2023-05-06T19:15:25.817Z,100753.34
2023-05-06T19:20:48.520Z,100757.31
2023-05-06T19:26:15.161Z,100760.09
2023-05-06T19:31:37.856Z,100754.63
2023-05-06T19:37:00.998Z,100769.13
2023-05-06T19:42:23.794Z,100768.09
2023-05-06T19:47:46.649Z,100765.75
2023-05-06T19:53:09.300Z,100761.19
2023-05-06T19:58:31.551Z,100763.59
2023-05-06T20:03:55.793Z,100756.44
2023-05-06T20:09:18.033Z,100748.38
2023-05-06T20:14:40.745Z,100749.91
2023-05-06T20:20:10.081Z,100744.44
2023-05-06T20:25:32.657Z,100752.09
2023-05-06T20:30:56.408Z,100750.03
2023-05-06T20:36:20.225Z,100756.16
2023-05-06T20:41:42.466Z,100757.53
2023-05-06T20:47:04.822Z,100758.09
2023-05-06T20:52:27.542Z,100755.91
2023-05-06T20:57:50.648Z,100754.06
2023-05-06T21:03:13.304Z,100752.06
2023-05-06T21:08:36.210Z,100752.22
2023-05-06T21:14:01.084Z,100757.34
2023-05-06T21:19:24.266Z,100761.19
2023-05-06T21:24:46.508Z,100751.41
2023-05-06T21:30:09.870Z,100751.63
2023-05-06T21:35:32.419Z,100755.25
2023-05-06T21:40:55.733Z,100751.38
2023-05-06T21:46:18.171Z,100754.59
2023-05-06T21:51:40.097Z,100756.44
2023-05-06T21:57:03.034Z,100753.25
2023-05-06T22:02:25.400Z,100758.31
2023-05-06T22:07:47.966Z,100768.81
2023-05-06T22:13:09.860Z,100768.81
2023-05-06T22:18:32.749Z,100771.63
2023-05-06T22:23:55.396Z,100766.72
2023-05-06T22:29:17.532Z,100769.13
2023-05-06T22:34:39.994Z,100765.47
2023-05-06T22:40:02.147Z,100768.38
2023-05-06T22:45:27.238Z,100771.19
2023-05-06T22:50:49.034Z,100777.94
2023-05-06T22:56:11.032Z,100775.56
2023-05-06T23:01:33.722Z,100782.47
2023-05-06T23:06:55.554Z,100786.59
2023-05-06T23:12:17.700Z,100782.34
2023-05-06T23:17:39.499Z,100789.97
2023-05-06T23:23:01.479Z,100793.53
2023-05-06T23:28:24.392Z,100790.25
2023-05-06T23:33:46.196Z,100793.06
2023-05-06T23:39:12.191Z,100795.84
2023-05-06T23:44:34.529Z,100801.84
2023-05-06T23:49:56.744Z,100796.13
2023-05-06T23:55:18.862Z,100799.78
